Hinesburg, Vermont
Current Conditions -  °F | °C
As of 6:54 AM on Sunday 25 Jan 2015 (Local Time) from KBTV Reporting Station
Broken Clouds Broken Clouds  
Wind Chill:   Ceiling: 7500
Heat Index: 20°   Visibility: 9mi
Dew Point: 12°   Wind: 15mph
Humidity: 71%   Direction: 330°NNW
Pressure: 29.57"   Gusts: 24mph
Location:  44.33°N, 73.11°W
Report Text: KBTV 251154Z 33013G21KT 9SM FEW060 BKN075 M07/M11 A2957 RMK AO2 PK WND 33026/1057 SNE50 PRESRR SLP017 4/002 P0000 60000 70001 T10671111 10006 21067 53057
Loading
Personal Weather Stations






























Interactive Weather Map New forecast layout! Learn more

10-Day Weather Forecast

Advertisements
Track Severe Weather on mobile